sensor_id;sensor_type;location;lat;lon;timestamp;pressure;altitude;pressure_sealevel;temperature;humidity
21574;BME280;10948;48.706;9.258;2022-08-18T00:04:32;97498.44;;;20.83;100.00
21574;BME280;10948;48.706;9.258;2022-08-18T00:07:00;97496.28;;;20.79;100.00
21574;BME280;10948;48.706;9.258;2022-08-18T00:09:25;97490.75;;;20.56;100.00
21574;BME280;10948;48.706;9.258;2022-08-18T00:11:50;97486.84;;;20.84;100.00
21574;BME280;10948;48.706;9.258;2022-08-18T00:14:17;97477.31;;;20.99;100.00
21574;BME280;10948;48.706;9.258;2022-08-18T00:16:43;97484.13;;;21.10;100.00
21574;BME280;10948;48.706;9.258;2022-08-18T00:19:08;97483.28;;;21.09;100.00
21574;BME280;10948;48.706;9.258;2022-08-18T00:21:33;97480.31;;;21.12;100.00
21574;BME280;10948;48.706;9.258;2022-08-18T00:23:59;97478.38;;;20.65;100.00
21574;BME280;10948;48.706;9.258;2022-08-18T00:26:24;97469.06;;;21.10;100.00
21574;BME280;10948;48.706;9.258;2022-08-18T00:28:50;97466.09;;;21.21;100.00
21574;BME280;10948;48.706;9.258;2022-08-18T00:31:15;97471.56;;;21.12;100.00
21574;BME280;10948;48.706;9.258;2022-08-18T00:33:40;97464.44;;;21.20;100.00
21574;BME280;10948;48.706;9.258;2022-08-18T00:36:08;97470.50;;;20.89;100.00
21574;BME280;10948;48.706;9.258;2022-08-18T00:38:37;97463.97;;;20.59;100.00
21574;BME280;10948;48.706;9.258;2022-08-18T00:41:02;97455.09;;;20.84;100.00
21574;BME280;10948;48.706;9.258;2022-08-18T00:43:30;97451.19;;;21.04;100.00
21574;BME280;10948;48.706;9.258;2022-08-18T00:45:56;97447.03;;;20.94;100.00
21574;BME280;10948;48.706;9.258;2022-08-18T00:48:22;97452.53;;;21.16;100.00
21574;BME280;10948;48.706;9.258;2022-08-18T00:50:54;97463.44;;;20.48;100.00
21574;BME280;10948;48.706;9.258;2022-08-18T00:53:35;97462.56;;;20.31;100.00
21574;BME280;10948;48.706;9.258;2022-08-18T00:56:07;97452.72;;;20.49;100.00
21574;BME280;10948;48.706;9.258;2022-08-18T00:58:36;97448.63;;;20.71;100.00
21574;BME280;10948;48.706;9.258;2022-08-18T01:01:04;97451.19;;;20.39;100.00
21574;BME280;10948;48.706;9.258;2022-08-18T01:03:31;97458.81;;;19.83;100.00
21574;BME280;10948;48.706;9.258;2022-08-18T01:06:02;97454.63;;;20.31;100.00
21574;BME280;10948;48.706;9.258;2022-08-18T01:08:30;97449.03;;;20.34;100.00
21574;BME280;10948;48.706;9.258;2022-08-18T01:10:56;97447.69;;;20.30;100.00
21574;BME280;10948;48.706;9.258;2022-08-18T01:13:24;97444.13;;;20.06;100.00
21574;BME280;10948;48.706;9.258;2022-08-18T01:15:51;97447.94;;;20.11;100.00
21574;BME280;10948;48.706;9.258;2022-08-18T01:18:16;97430.75;;;20.07;100.00
21574;BME280;10948;48.706;9.258;2022-08-18T01:21:11;97417.47;;;20.33;100.00
21574;BME280;10948;48.706;9.258;2022-08-18T01:23:56;97414.75;;;19.83;100.00
21574;BME280;10948;48.706;9.258;2022-08-18T01:26:22;97413.25;;;19.81;100.00
21574;BME280;10948;48.706;9.258;2022-08-18T01:28:48;97412.97;;;20.25;100.00
21574;BME280;10948;48.706;9.258;2022-08-18T01:34:01;97399.38;;;20.86;100.00
21574;BME280;10948;48.706;9.258;2022-08-18T01:36:28;97402.16;;;20.60;100.00
21574;BME280;10948;48.706;9.258;2022-08-18T01:38:54;97401.59;;;20.25;100.00
21574;BME280;10948;48.706;9.258;2022-08-18T01:41:20;97409.66;;;19.90;100.00
21574;BME280;10948;48.706;9.258;2022-08-18T01:43:46;97396.09;;;20.18;100.00
21574;BME280;10948;48.706;9.258;2022-08-18T01:46:12;97384.06;;;20.24;100.00
21574;BME280;10948;48.706;9.258;2022-08-18T01:48:40;97376.50;;;20.37;100.00
21574;BME280;10948;48.706;9.258;2022-08-18T01:51:08;97379.66;;;20.56;100.00
21574;BME280;10948;48.706;9.258;2022-08-18T01:53:35;97368.13;;;20.73;100.00
21574;BME280;10948;48.706;9.258;2022-08-18T01:56:00;97369.94;;;20.65;100.00
21574;BME280;10948;48.706;9.258;2022-08-18T01:58:29;97364.81;;;20.63;100.00
21574;BME280;10948;48.706;9.258;2022-08-18T02:00:55;97362.94;;;20.32;100.00
21574;BME280;10948;48.706;9.258;2022-08-18T02:03:23;97364.72;;;20.15;100.00
21574;BME280;10948;48.706;9.258;2022-08-18T02:05:51;97361.81;;;20.42;100.00
21574;BME280;10948;48.706;9.258;2022-08-18T02:08:20;97371.66;;;20.16;100.00
21574;BME280;10948;48.706;9.258;2022-08-18T02:10:46;97369.75;;;20.50;100.00
21574;BME280;10948;48.706;9.258;2022-08-18T02:13:11;97367.09;;;20.42;100.00
21574;BME280;10948;48.706;9.258;2022-08-18T02:15:37;97361.59;;;20.36;100.00
21574;BME280;10948;48.706;9.258;2022-08-18T02:18:02;97366.78;;;20.61;100.00
21574;BME280;10948;48.706;9.258;2022-08-18T02:20:27;97360.81;;;20.51;100.00
21574;BME280;10948;48.706;9.258;2022-08-18T02:22:53;97361.56;;;20.20;100.00
21574;BME280;10948;48.706;9.258;2022-08-18T02:25:18;97363.56;;;20.18;100.00
21574;BME280;10948;48.706;9.258;2022-08-18T02:27:44;97354.03;;;20.49;100.00
21574;BME280;10948;48.706;9.258;2022-08-18T02:30:11;97361.31;;;20.39;100.00
21574;BME280;10948;48.706;9.258;2022-08-18T02:32:37;97361.75;;;20.26;100.00
21574;BME280;10948;48.706;9.258;2022-08-18T02:35:03;97364.09;;;20.37;100.00
21574;BME280;10948;48.706;9.258;2022-08-18T02:37:28;97361.78;;;20.34;100.00
21574;BME280;10948;48.706;9.258;2022-08-18T02:39:55;97367.41;;;20.39;100.00
21574;BME280;10948;48.706;9.258;2022-08-18T02:42:21;97371.66;;;20.16;100.00
21574;BME280;10948;48.706;9.258;2022-08-18T02:44:46;97364.56;;;20.25;100.00
21574;BME280;10948;48.706;9.258;2022-08-18T02:47:11;97365.72;;;20.22;100.00
21574;BME280;10948;48.706;9.258;2022-08-18T02:49:37;97382.13;;;20.00;100.00
21574;BME280;10948;48.706;9.258;2022-08-18T02:52:03;97383.22;;;20.23;100.00
21574;BME280;10948;48.706;9.258;2022-08-18T02:54:29;97377.44;;;20.20;100.00
21574;BME280;10948;48.706;9.258;2022-08-18T02:56:54;97373.94;;;20.19;100.00
21574;BME280;10948;48.706;9.258;2022-08-18T02:59:22;97362.72;;;20.17;100.00
21574;BME280;10948;48.706;9.258;2022-08-18T03:01:52;97368.06;;;20.33;100.00
21574;BME280;10948;48.706;9.258;2022-08-18T03:04:19;97368.22;;;20.24;100.00
21574;BME280;10948;48.706;9.258;2022-08-18T03:06:45;97367.84;;;20.11;100.00
21574;BME280;10948;48.706;9.258;2022-08-18T03:09:11;97352.38;;;19.98;100.00
21574;BME280;10948;48.706;9.258;2022-08-18T03:11:37;97339.66;;;20.35;100.00
21574;BME280;10948;48.706;9.258;2022-08-18T03:14:03;97337.28;;;20.08;100.00
21574;BME280;10948;48.706;9.258;2022-08-18T03:16:29;97342.56;;;20.08;100.00
21574;BME280;10948;48.706;9.258;2022-08-18T03:18:58;97342.22;;;20.11;100.00
21574;BME280;10948;48.706;9.258;2022-08-18T03:21:25;97349.66;;;20.16;100.00
21574;BME280;10948;48.706;9.258;2022-08-18T03:23:51;97354.78;;;20.09;100.00
21574;BME280;10948;48.706;9.258;2022-08-18T03:26:17;97356.75;;;20.07;100.00
21574;BME280;10948;48.706;9.258;2022-08-18T03:28:43;97348.00;;;20.07;100.00
21574;BME280;10948;48.706;9.258;2022-08-18T03:31:10;97350.09;;;20.03;100.00
21574;BME280;10948;48.706;9.258;2022-08-18T03:33:36;97348.25;;;19.96;100.00
21574;BME280;10948;48.706;9.258;2022-08-18T03:36:05;97344.28;;;19.92;100.00
21574;BME280;10948;48.706;9.258;2022-08-18T03:38:30;97341.06;;;19.72;100.00
21574;BME280;10948;48.706;9.258;2022-08-18T03:40:56;97338.53;;;19.96;100.00
21574;BME280;10948;48.706;9.258;2022-08-18T03:43:21;97344.47;;;19.98;100.00
21574;BME280;10948;48.706;9.258;2022-08-18T03:45:46;97338.53;;;20.04;100.00
21574;BME280;10948;48.706;9.258;2022-08-18T03:48:12;97335.91;;;20.04;100.00
21574;BME280;10948;48.706;9.258;2022-08-18T03:50:37;97345.41;;;19.81;100.00
21574;BME280;10948;48.706;9.258;2022-08-18T03:53:02;97343.25;;;19.77;100.00
21574;BME280;10948;48.706;9.258;2022-08-18T03:55:29;97344.25;;;19.84;100.00
21574;BME280;10948;48.706;9.258;2022-08-18T03:58:01;97332.19;;;19.81;100.00
21574;BME280;10948;48.706;9.258;2022-08-18T04:00:29;97333.06;;;19.90;100.00
21574;BME280;10948;48.706;9.258;2022-08-18T04:02:55;97337.06;;;19.60;100.00
21574;BME280;10948;48.706;9.258;2022-08-18T04:05:21;97331.22;;;19.82;100.00
21574;BME280;10948;48.706;9.258;2022-08-18T04:07:46;97333.75;;;20.00;100.00
21574;BME280;10948;48.706;9.258;2022-08-18T04:10:11;97332.53;;;19.86;100.00
21574;BME280;10948;48.706;9.258;2022-08-18T04:12:36;97345.69;;;19.70;100.00
21574;BME280;10948;48.706;9.258;2022-08-18T04:15:03;97345.53;;;19.72;100.00
21574;BME280;10948;48.706;9.258;2022-08-18T04:17:29;97350.44;;;19.33;100.00
21574;BME280;10948;48.706;9.258;2022-08-18T04:19:54;97350.97;;;19.19;100.00
21574;BME280;10948;48.706;9.258;2022-08-18T04:22:20;97354.44;;;19.71;100.00
21574;BME280;10948;48.706;9.258;2022-08-18T04:24:46;97354.56;;;19.61;100.00
21574;BME280;10948;48.706;9.258;2022-08-18T04:27:12;97357.16;;;19.53;100.00
21574;BME280;10948;48.706;9.258;2022-08-18T04:29:37;97359.16;;;19.59;100.00
21574;BME280;10948;48.706;9.258;2022-08-18T04:32:02;97355.06;;;19.65;100.00
21574;BME280;10948;48.706;9.258;2022-08-18T04:34:28;97357.88;;;19.71;100.00
21574;BME280;10948;48.706;9.258;2022-08-18T04:36:54;97360.66;;;19.62;100.00
21574;BME280;10948;48.706;9.258;2022-08-18T04:39:19;97359.06;;;20.10;100.00
21574;BME280;10948;48.706;9.258;2022-08-18T04:41:46;97357.44;;;20.17;100.00
21574;BME280;10948;48.706;9.258;2022-08-18T04:44:12;97363.84;;;20.80;100.00
21574;BME280;10948;48.706;9.258;2022-08-18T04:46:49;97363.34;;;21.33;100.00
21574;BME280;10948;48.706;9.258;2022-08-18T04:49:19;97366.44;;;21.44;100.00
21574;BME280;10948;48.706;9.258;2022-08-18T04:51:46;97371.63;;;21.92;100.00
21574;BME280;10948;48.706;9.258;2022-08-18T04:54:32;97362.31;;;22.65;100.00
21574;BME280;10948;48.706;9.258;2022-08-18T04:57:05;97364.66;;;23.05;100.00
21574;BME280;10948;48.706;9.258;2022-08-18T04:59:31;97358.13;;;23.67;95.37
21574;BME280;10948;48.706;9.258;2022-08-18T05:01:57;97364.25;;;23.53;96.33
21574;BME280;10948;48.706;9.258;2022-08-18T05:04:24;97365.09;;;23.68;94.36
21574;BME280;10948;48.706;9.258;2022-08-18T05:06:52;97365.09;;;22.49;100.00
21574;BME280;10948;48.706;9.258;2022-08-18T05:09:17;97363.16;;;21.34;100.00
21574;BME280;10948;48.706;9.258;2022-08-18T05:11:43;97370.13;;;21.27;100.00
21574;BME280;10948;48.706;9.258;2022-08-18T05:14:08;97372.41;;;21.46;100.00
21574;BME280;10948;48.706;9.258;2022-08-18T05:16:35;97371.84;;;22.21;100.00
21574;BME280;10948;48.706;9.258;2022-08-18T05:19:01;97367.91;;;24.24;96.21
21574;BME280;10948;48.706;9.258;2022-08-18T05:21:28;97362.47;;;25.31;85.50
21574;BME280;10948;48.706;9.258;2022-08-18T05:23:53;97365.28;;;25.23;84.27
21574;BME280;10948;48.706;9.258;2022-08-18T05:26:19;97367.81;;;24.18;88.12
21574;BME280;10948;48.706;9.258;2022-08-18T05:28:45;97366.13;;;24.46;89.27
21574;BME280;10948;48.706;9.258;2022-08-18T05:31:11;97361.69;;;24.32;90.35
21574;BME280;10948;48.706;9.258;2022-08-18T05:33:38;97357.41;;;23.88;96.10
21574;BME280;10948;48.706;9.258;2022-08-18T05:36:34;97364.50;;;23.58;95.59
21574;BME280;10948;48.706;9.258;2022-08-18T05:41:22;97345.78;;;24.24;94.51
21574;BME280;10948;48.706;9.258;2022-08-18T05:43:50;97345.75;;;24.03;93.69
21574;BME280;10948;48.706;9.258;2022-08-18T05:46:15;97344.44;;;24.63;92.96
21574;BME280;10948;48.706;9.258;2022-08-18T05:48:41;97340.44;;;24.95;87.40
21574;BME280;10948;48.706;9.258;2022-08-18T05:51:11;97343.84;;;24.32;89.10
21574;BME280;10948;48.706;9.258;2022-08-18T05:53:40;97344.63;;;22.27;100.00
21574;BME280;10948;48.706;9.258;2022-08-18T05:56:25;97351.22;;;21.54;100.00
21574;BME280;10948;48.706;9.258;2022-08-18T05:59:19;97363.72;;;22.23;100.00
21574;BME280;10948;48.706;9.258;2022-08-18T06:01:48;97364.31;;;22.33;100.00
21574;BME280;10948;48.706;9.258;2022-08-18T06:04:25;97360.72;;;23.01;100.00
21574;BME280;10948;48.706;9.258;2022-08-18T06:06:53;97364.06;;;23.69;96.61
21574;BME280;10948;48.706;9.258;2022-08-18T06:09:26;97369.22;;;23.71;96.49
21574;BME280;10948;48.706;9.258;2022-08-18T06:11:53;97378.38;;;24.11;97.21
21574;BME280;10948;48.706;9.258;2022-08-18T06:14:19;97378.78;;;22.83;100.00
21574;BME280;10948;48.706;9.258;2022-08-18T06:27:00;97381.63;;;24.78;86.82
21574;BME280;10948;48.706;9.258;2022-08-18T06:39:47;97367.19;;;25.08;83.63
21574;BME280;10948;48.706;9.258;2022-08-18T06:42:20;97372.38;;;25.16;81.34
21574;BME280;10948;48.706;9.258;2022-08-18T06:44:54;97375.03;;;24.38;90.94
21574;BME280;10948;48.706;9.258;2022-08-18T06:50:04;97369.44;;;23.32;92.20
21574;BME280;10948;48.706;9.258;2022-08-18T06:55:15;97367.09;;;22.47;100.00
21574;BME280;10948;48.706;9.258;2022-08-18T06:57:54;97373.84;;;21.81;100.00
21574;BME280;10948;48.706;9.258;2022-08-18T07:00:23;97375.66;;;23.02;100.00
21574;BME280;10948;48.706;9.258;2022-08-18T07:05:34;97377.41;;;23.10;98.94
21574;BME280;10948;48.706;9.258;2022-08-18T07:10:45;97384.38;;;23.11;100.00
21574;BME280;10948;48.706;9.258;2022-08-18T07:15:44;97399.44;;;23.84;90.35
21574;BME280;10948;48.706;9.258;2022-08-18T07:18:12;97393.50;;;24.11;87.34
21574;BME280;10948;48.706;9.258;2022-08-18T07:20:45;97413.03;;;24.18;87.71
21574;BME280;10948;48.706;9.258;2022-08-18T07:23:25;97415.94;;;23.06;92.02
21574;BME280;10948;48.706;9.258;2022-08-18T07:25:59;97415.84;;;22.46;100.00
21574;BME280;10948;48.706;9.258;2022-08-18T07:28:26;97414.53;;;22.95;100.00
21574;BME280;10948;48.706;9.258;2022-08-18T07:30:52;97428.84;;;21.79;100.00
21574;BME280;10948;48.706;9.258;2022-08-18T07:33:31;97433.56;;;22.76;100.00
21574;BME280;10948;48.706;9.258;2022-08-18T07:35:57;97431.41;;;22.41;100.00
21574;BME280;10948;48.706;9.258;2022-08-18T07:38:32;97436.44;;;22.28;100.00
21574;BME280;10948;48.706;9.258;2022-08-18T07:41:03;97443.03;;;22.48;100.00
21574;BME280;10948;48.706;9.258;2022-08-18T07:46:20;97437.66;;;22.56;100.00
21574;BME280;10948;48.706;9.258;2022-08-18T07:48:49;97433.19;;;22.57;100.00
21574;BME280;10948;48.706;9.258;2022-08-18T07:51:23;97441.47;;;22.15;100.00
21574;BME280;10948;48.706;9.258;2022-08-18T07:53:53;97440.59;;;21.68;100.00
21574;BME280;10948;48.706;9.258;2022-08-18T07:59:15;97454.78;;;21.91;100.00
21574;BME280;10948;48.706;9.258;2022-08-18T08:07:05;97447.38;;;22.25;100.00
21574;BME280;10948;48.706;9.258;2022-08-18T08:09:45;97452.19;;;21.35;100.00
21574;BME280;10948;48.706;9.258;2022-08-18T08:14:44;97421.91;;;22.16;100.00
21574;BME280;10948;48.706;9.258;2022-08-18T08:22:21;97398.84;;;21.86;100.00
21574;BME280;10948;48.706;9.258;2022-08-18T08:27:40;97396.47;;;22.68;100.00
21574;BME280;10948;48.706;9.258;2022-08-18T08:30:16;97387.44;;;22.77;100.00
21574;BME280;10948;48.706;9.258;2022-08-18T08:35:16;97394.63;;;22.00;100.00
21574;BME280;10948;48.706;9.258;2022-08-18T08:37:53;97393.63;;;22.47;100.00
21574;BME280;10948;48.706;9.258;2022-08-18T08:43:09;97385.75;;;24.09;98.67
21574;BME280;10948;48.706;9.258;2022-08-18T08:45:38;97393.97;;;24.29;91.84
21574;BME280;10948;48.706;9.258;2022-08-18T08:51:41;97395.38;;;23.96;91.46
21574;BME280;10948;48.706;9.258;2022-08-18T08:53:43;97403.31;;;24.25;94.47
21574;BME280;10948;48.706;9.258;2022-08-18T08:56:12;97406.53;;;24.20;94.81
21574;BME280;10948;48.706;9.258;2022-08-18T09:03:52;97380.25;;;29.48;61.75
21574;BME280;10948;48.706;9.258;2022-08-18T09:08:49;97373.69;;;28.31;66.26
21574;BME280;10948;48.706;9.258;2022-08-18T09:14:00;97343.72;;;28.98;64.84
21574;BME280;10948;48.706;9.258;2022-08-18T09:19:37;97344.94;;;28.64;65.81
21574;BME280;10948;48.706;9.258;2022-08-18T09:24:40;97353.31;;;26.42;71.12
21574;BME280;10948;48.706;9.258;2022-08-18T09:32:34;97364.34;;;30.67;55.01
21574;BME280;10948;48.706;9.258;2022-08-18T09:42:43;97386.63;;;29.78;57.97
21574;BME280;10948;48.706;9.258;2022-08-18T09:48:20;97384.94;;;27.57;66.86
21574;BME280;10948;48.706;9.258;2022-08-18T09:50:53;97382.16;;;30.08;57.20
21574;BME280;10948;48.706;9.258;2022-08-18T09:54:05;97389.34;;;28.85;60.82
21574;BME280;10948;48.706;9.258;2022-08-18T09:56:04;97387.72;;;30.31;56.34
21574;BME280;10948;48.706;9.258;2022-08-18T10:06:38;97381.41;;;33.58;48.11
21574;BME280;10948;48.706;9.258;2022-08-18T10:09:27;97372.53;;;33.96;47.34
21574;BME280;10948;48.706;9.258;2022-08-18T10:12:37;97359.91;;;32.74;50.59
21574;BME280;10948;48.706;9.258;2022-08-18T10:17:09;97354.78;;;31.64;53.14
21574;BME280;10948;48.706;9.258;2022-08-18T10:22:04;97348.59;;;34.42;46.30
21574;BME280;10948;48.706;9.258;2022-08-18T10:34:42;97314.34;;;35.27;45.18
21574;BME280;10948;48.706;9.258;2022-08-18T10:44:35;97295.09;;;35.60;45.13
21574;BME280;10948;48.706;9.258;2022-08-18T10:47:01;97317.31;;;36.60;42.04
21574;BME280;10948;48.706;9.258;2022-08-18T10:49:28;97321.63;;;33.71;48.10
21574;BME280;10948;48.706;9.258;2022-08-18T10:52:07;97301.47;;;36.22;43.43
21574;BME280;10948;48.706;9.258;2022-08-18T10:57:10;97289.38;;;36.60;43.34
21574;BME280;10948;48.706;9.258;2022-08-18T11:04:35;97298.09;;;33.67;47.04
21574;BME280;10948;48.706;9.258;2022-08-18T11:07:06;97291.84;;;32.84;48.23
21574;BME280;10948;48.706;9.258;2022-08-18T11:09:33;97301.00;;;32.27;50.46
21574;BME280;10948;48.706;9.258;2022-08-18T11:11:59;97292.09;;;30.12;53.51
21574;BME280;10948;48.706;9.258;2022-08-18T11:19:43;97293.94;;;32.14;51.47
21574;BME280;10948;48.706;9.258;2022-08-18T11:22:21;97286.34;;;33.40;48.68
21574;BME280;10948;48.706;9.258;2022-08-18T11:24:48;97289.66;;;34.92;46.19
21574;BME280;10948;48.706;9.258;2022-08-18T11:27:23;97287.13;;;35.12;45.71
21574;BME280;10948;48.706;9.258;2022-08-18T11:29:51;97283.25;;;34.50;45.15
21574;BME280;10948;48.706;9.258;2022-08-18T11:32:22;97292.81;;;35.42;43.88
21574;BME280;10948;48.706;9.258;2022-08-18T11:34:49;97276.94;;;36.02;43.34
21574;BME280;10948;48.706;9.258;2022-08-18T11:37:26;97285.97;;;33.69;45.21
21574;BME280;10948;48.706;9.258;2022-08-18T11:39:55;97289.13;;;31.54;48.53
21574;BME280;10948;48.706;9.258;2022-08-18T11:42:29;97281.59;;;33.30;48.50
21574;BME280;10948;48.706;9.258;2022-08-18T11:45:30;97277.31;;;34.53;44.51
21574;BME280;10948;48.706;9.258;2022-08-18T11:50:31;97261.50;;;34.67;44.61
21574;BME280;10948;48.706;9.258;2022-08-18T11:53:10;97264.28;;;34.72;43.83
21574;BME280;10948;48.706;9.258;2022-08-18T11:55:37;97260.63;;;34.13;46.64
21574;BME280;10948;48.706;9.258;2022-08-18T11:58:02;97260.44;;;33.60;46.81
21574;BME280;10948;48.706;9.258;2022-08-18T12:03:11;97240.91;;;33.91;45.18
21574;BME280;10948;48.706;9.258;2022-08-18T12:05:41;97240.19;;;33.08;47.80
21574;BME280;10948;48.706;9.258;2022-08-18T12:08:19;97249.06;;;33.96;44.99
21574;BME280;10948;48.706;9.258;2022-08-18T12:10:46;97249.38;;;33.62;46.28
21574;BME280;10948;48.706;9.258;2022-08-18T12:13:20;97240.00;;;34.29;46.12
21574;BME280;10948;48.706;9.258;2022-08-18T12:15:45;97241.00;;;34.01;44.77
21574;BME280;10948;48.706;9.258;2022-08-18T12:18:11;97248.78;;;34.67;45.33
21574;BME280;10948;48.706;9.258;2022-08-18T12:20:36;97244.41;;;35.19;44.41
21574;BME280;10948;48.706;9.258;2022-08-18T12:23:01;97244.41;;;34.13;43.12
21574;BME280;10948;48.706;9.258;2022-08-18T12:25:28;97245.25;;;33.38;45.82
21574;BME280;10948;48.706;9.258;2022-08-18T12:27:53;97245.28;;;33.97;46.36
21574;BME280;10948;48.706;9.258;2022-08-18T12:30:18;97248.44;;;34.85;43.55
21574;BME280;10948;48.706;9.258;2022-08-18T12:32:44;97225.75;;;34.12;44.14
21574;BME280;10948;48.706;9.258;2022-08-18T12:35:10;97228.53;;;33.57;45.33
21574;BME280;10948;48.706;9.258;2022-08-18T12:37:36;97228.03;;;34.46;44.93
21574;BME280;10948;48.706;9.258;2022-08-18T12:40:02;97230.69;;;33.55;45.15
21574;BME280;10948;48.706;9.258;2022-08-18T12:42:28;97227.13;;;34.62;44.98
21574;BME280;10948;48.706;9.258;2022-08-18T12:44:53;97216.88;;;35.27;42.80
21574;BME280;10948;48.706;9.258;2022-08-18T12:47:21;97210.22;;;34.50;44.20
21574;BME280;10948;48.706;9.258;2022-08-18T12:49:48;97207.78;;;33.25;47.69
21574;BME280;10948;48.706;9.258;2022-08-18T12:52:14;97200.00;;;34.26;45.69
21574;BME280;10948;48.706;9.258;2022-08-18T12:54:39;97200.19;;;35.09;43.67
21574;BME280;10948;48.706;9.258;2022-08-18T12:57:08;97203.22;;;33.63;46.59
21574;BME280;10948;48.706;9.258;2022-08-18T12:59:36;97202.66;;;33.61;45.07
21574;BME280;10948;48.706;9.258;2022-08-18T13:02:01;97184.25;;;31.98;47.40
21574;BME280;10948;48.706;9.258;2022-08-18T13:04:27;97180.06;;;34.10;45.25
21574;BME280;10948;48.706;9.258;2022-08-18T13:06:53;97175.56;;;32.36;46.38
21574;BME280;10948;48.706;9.258;2022-08-18T13:09:21;97167.25;;;32.09;47.58
21574;BME280;10948;48.706;9.258;2022-08-18T13:11:46;97168.31;;;33.35;46.87
21574;BME280;10948;48.706;9.258;2022-08-18T13:14:12;97151.63;;;33.60;46.50
21574;BME280;10948;48.706;9.258;2022-08-18T13:16:40;97157.31;;;32.87;46.28
21574;BME280;10948;48.706;9.258;2022-08-18T13:19:06;97165.13;;;33.81;45.63
21574;BME280;10948;48.706;9.258;2022-08-18T13:21:32;97181.97;;;33.12;47.22
21574;BME280;10948;48.706;9.258;2022-08-18T13:23:57;97172.84;;;32.80;46.53
21574;BME280;10948;48.706;9.258;2022-08-18T13:26:27;97160.31;;;33.83;45.06
21574;BME280;10948;48.706;9.258;2022-08-18T13:28:53;97176.75;;;33.06;47.03
21574;BME280;10948;48.706;9.258;2022-08-18T13:31:21;97170.66;;;33.91;44.69
21574;BME280;10948;48.706;9.258;2022-08-18T13:33:47;97167.63;;;33.66;45.26
21574;BME280;10948;48.706;9.258;2022-08-18T13:36:14;97174.94;;;33.28;45.94
21574;BME280;10948;48.706;9.258;2022-08-18T13:38:39;97163.38;;;33.32;45.86
21574;BME280;10948;48.706;9.258;2022-08-18T13:41:07;97164.59;;;33.41;46.72
21574;BME280;10948;48.706;9.258;2022-08-18T13:43:33;97156.47;;;33.03;45.68
21574;BME280;10948;48.706;9.258;2022-08-18T13:46:00;97161.09;;;33.62;46.48
21574;BME280;10948;48.706;9.258;2022-08-18T13:48:25;97162.00;;;32.47;46.72
21574;BME280;10948;48.706;9.258;2022-08-18T13:50:53;97153.34;;;32.29;47.38
21574;BME280;10948;48.706;9.258;2022-08-18T13:53:20;97155.19;;;32.89;46.44
21574;BME280;10948;48.706;9.258;2022-08-18T13:55:46;97149.28;;;32.59;46.58
21574;BME280;10948;48.706;9.258;2022-08-18T13:58:12;97147.00;;;32.51;45.99
21574;BME280;10948;48.706;9.258;2022-08-18T14:00:38;97147.28;;;33.21;46.00
21574;BME280;10948;48.706;9.258;2022-08-18T14:03:05;97142.56;;;32.45;46.92
21574;BME280;10948;48.706;9.258;2022-08-18T14:05:30;97152.94;;;32.70;47.60
21574;BME280;10948;48.706;9.258;2022-08-18T14:07:56;97143.97;;;32.64;45.80
21574;BME280;10948;48.706;9.258;2022-08-18T14:10:22;97150.94;;;32.77;46.70
21574;BME280;10948;48.706;9.258;2022-08-18T14:12:49;97149.19;;;32.71;46.42
21574;BME280;10948;48.706;9.258;2022-08-18T14:15:16;97154.97;;;30.59;49.50
21574;BME280;10948;48.706;9.258;2022-08-18T14:17:41;97149.88;;;31.50;48.21
21574;BME280;10948;48.706;9.258;2022-08-18T14:20:07;97155.69;;;31.97;48.08
21574;BME280;10948;48.706;9.258;2022-08-18T14:22:52;97155.50;;;31.37;49.44
21574;BME280;10948;48.706;9.258;2022-08-18T14:25:36;97156.69;;;31.29;49.32
21574;BME280;10948;48.706;9.258;2022-08-18T14:28:20;97148.06;;;31.66;47.79
21574;BME280;10948;48.706;9.258;2022-08-18T14:30:45;97144.66;;;30.86;50.19
21574;BME280;10948;48.706;9.258;2022-08-18T14:33:11;97137.19;;;31.73;48.48
21574;BME280;10948;48.706;9.258;2022-08-18T14:35:39;97140.53;;;31.68;48.30
21574;BME280;10948;48.706;9.258;2022-08-18T14:38:04;97139.72;;;32.07;47.25
21574;BME280;10948;48.706;9.258;2022-08-18T14:40:32;97144.63;;;31.09;48.62
21574;BME280;10948;48.706;9.258;2022-08-18T14:42:57;97150.38;;;31.74;48.58
21574;BME280;10948;48.706;9.258;2022-08-18T14:45:23;97148.09;;;32.22;47.45
21574;BME280;10948;48.706;9.258;2022-08-18T14:47:49;97149.91;;;32.05;46.51
21574;BME280;10948;48.706;9.258;2022-08-18T14:50:17;97138.91;;;32.07;46.92
21574;BME280;10948;48.706;9.258;2022-08-18T14:52:43;97135.09;;;31.63;47.04
21574;BME280;10948;48.706;9.258;2022-08-18T14:55:09;97142.97;;;31.93;47.15
21574;BME280;10948;48.706;9.258;2022-08-18T14:57:35;97147.75;;;30.60;47.21
21574;BME280;10948;48.706;9.258;2022-08-18T15:00:02;97145.06;;;30.60;48.50
21574;BME280;10948;48.706;9.258;2022-08-18T15:02:27;97150.03;;;30.86;48.69
21574;BME280;10948;48.706;9.258;2022-08-18T15:04:52;97144.28;;;31.17;48.76
21574;BME280;10948;48.706;9.258;2022-08-18T15:07:17;97155.16;;;30.99;48.32
21574;BME280;10948;48.706;9.258;2022-08-18T15:09:43;97146.63;;;30.67;49.17
21574;BME280;10948;48.706;9.258;2022-08-18T15:12:08;97151.72;;;30.46;48.91
21574;BME280;10948;48.706;9.258;2022-08-18T15:14:34;97151.22;;;30.08;48.61
21574;BME280;10948;48.706;9.258;2022-08-18T15:17:03;97153.84;;;29.49;49.76
21574;BME280;10948;48.706;9.258;2022-08-18T15:19:30;97153.56;;;30.45;48.94
21574;BME280;10948;48.706;9.258;2022-08-18T15:21:55;97164.94;;;30.59;48.36
21574;BME280;10948;48.706;9.258;2022-08-18T15:24:40;97160.81;;;30.33;49.91
21574;BME280;10948;48.706;9.258;2022-08-18T15:27:29;97156.09;;;30.29;49.97
21574;BME280;10948;48.706;9.258;2022-08-18T15:29:55;97152.06;;;30.61;48.18
21574;BME280;10948;48.706;9.258;2022-08-18T15:32:21;97149.53;;;30.13;49.71
21574;BME280;10948;48.706;9.258;2022-08-18T15:34:46;97152.41;;;29.53;51.26